createdAt,value
2018-03-07T00:05:30.254Z,63.37
2018-03-07T00:08:00.712Z,68.83
2018-03-07T00:10:37.328Z,77.23
2018-03-07T00:13:06.816Z,75.83
2018-03-07T00:15:38.611Z,74.70
2018-03-07T00:18:14.340Z,76.23
2018-03-07T00:20:50.830Z,77.83
2018-03-07T00:23:30.026Z,82.67
2018-03-07T00:26:06.475Z,73.70
2018-03-07T00:28:44.101Z,70.63
2018-03-07T00:31:22.109Z,65.97
2018-03-07T00:33:52.398Z,70.70
2018-03-07T00:36:20.187Z,79.53
2018-03-07T00:38:47.920Z,69.97
2018-03-07T00:41:17.019Z,69.43
2018-03-07T00:43:44.683Z,78.17
2018-03-07T00:46:12.440Z,86.20
2018-03-07T00:48:40.325Z,77.80
2018-03-07T00:51:08.724Z,80.23
2018-03-07T00:53:37.597Z,83.40
2018-03-07T00:56:05.262Z,90.10
2018-03-07T00:58:32.856Z,74.20
2018-03-07T01:01:00.473Z,76.93
2018-03-07T01:03:28.672Z,80.20
2018-03-07T01:05:56.281Z,74.77
2018-03-07T01:08:23.907Z,77.17
2018-03-07T01:10:51.632Z,70.50
2018-03-07T01:13:20.334Z,73.80
2018-03-07T01:15:48.392Z,69.67
2018-03-07T01:18:16.358Z,72.90
2018-03-07T01:20:43.989Z,69.40
2018-03-07T01:23:12.929Z,68.47
2018-03-07T01:25:41.499Z,75.20
2018-03-07T01:28:09.172Z,72.57
2018-03-07T01:30:36.831Z,65.70
2018-03-07T01:33:05.297Z,70.77
2018-03-07T01:35:33.966Z,69.47
2018-03-07T01:38:01.648Z,67.83
2018-03-07T01:40:29.299Z,65.70
2018-03-07T01:42:56.914Z,67.03
2018-03-07T01:45:24.655Z,70.30
2018-03-07T01:47:52.371Z,71.23
2018-03-07T01:50:19.992Z,63.10
2018-03-07T01:52:47.827Z,64.63
2018-03-07T01:55:15.433Z,58.27
2018-03-07T01:57:43.058Z,61.20
2018-03-07T02:00:11.009Z,61.60
2018-03-07T02:02:38.634Z,62.67
2018-03-07T02:05:06.511Z,56.60
2018-03-07T02:07:34.547Z,59.67
2018-03-07T02:10:02.169Z,58.43
2018-03-07T02:12:29.761Z,52.90
2018-03-07T02:14:57.367Z,55.43
2018-03-07T02:17:25.597Z,55.67
2018-03-07T02:19:53.175Z,56.60
2018-03-07T02:22:20.801Z,53.57
2018-03-07T02:24:48.626Z,58.27
2018-03-07T02:27:16.268Z,56.33
2018-03-07T02:29:43.887Z,56.03
2018-03-07T02:32:12.650Z,59.90
2018-03-07T02:34:40.254Z,57.80
2018-03-07T02:37:08.141Z,54.53
2018-03-07T02:39:35.823Z,50.57
2018-03-07T02:42:03.430Z,53.60
2018-03-07T02:44:30.988Z,53.20
2018-03-07T02:46:58.580Z,47.40
2018-03-07T02:49:26.512Z,46.27
2018-03-07T02:51:54.317Z,51.57
2018-03-07T02:54:21.910Z,49.63
2018-03-07T02:56:49.534Z,46.30
2018-03-07T02:59:17.818Z,47.33
2018-03-07T03:01:45.414Z,46.10
2018-03-07T03:04:13.032Z,47.70
2018-03-07T03:06:41.830Z,43.63
2018-03-07T03:09:10.742Z,41.33
2018-03-07T03:11:38.364Z,39.70
2018-03-07T03:14:05.960Z,42.63
2018-03-07T03:16:33.575Z,43.37
2018-03-07T03:19:04.579Z,40.77
2018-03-07T03:21:32.156Z,37.80
2018-03-07T03:23:59.751Z,39.13
2018-03-07T03:26:27.380Z,36.73
2018-03-07T03:28:54.954Z,37.80
2018-03-07T03:31:22.534Z,38.77
2018-03-07T03:33:50.212Z,34.80
2018-03-07T03:36:18.432Z,34.33
2018-03-07T03:38:46.027Z,35.10
2018-03-07T03:41:18.189Z,33.63
2018-03-07T03:43:47.266Z,30.53
2018-03-07T03:46:16.170Z,34.50
2018-03-07T03:48:47.838Z,35.80
2018-03-07T03:51:18.108Z,35.40
2018-03-07T03:53:48.926Z,64.10
2018-03-07T03:56:19.680Z,56.67
2018-03-07T03:58:47.593Z,36.90
2018-03-07T04:01:15.226Z,36.90
2018-03-07T04:03:42.832Z,40.50
2018-03-07T04:06:10.473Z,35.47
2018-03-07T04:08:38.074Z,44.13
2018-03-07T04:11:06.334Z,35.77
2018-03-07T04:13:34.265Z,39.20
2018-03-07T04:16:01.887Z,30.10
2018-03-07T04:18:29.505Z,35.70
2018-03-07T04:20:57.165Z,34.30
2018-03-07T04:23:24.753Z,37.33
2018-03-07T04:25:52.444Z,38.83
2018-03-07T04:28:20.722Z,45.23
2018-03-07T04:30:48.569Z,38.77
2018-03-07T04:33:16.578Z,44.33
2018-03-07T04:35:44.223Z,41.10
2018-03-07T04:38:11.899Z,129.00
2018-03-07T04:40:39.626Z,47.37
2018-03-07T04:43:07.440Z,42.67
2018-03-07T04:45:35.719Z,41.40
2018-03-07T04:48:03.793Z,43.10
2018-03-07T04:50:31.374Z,48.53
2018-03-07T04:52:59.599Z,59.07
2018-03-07T04:55:27.268Z,38.27
2018-03-07T04:57:54.919Z,36.87
2018-03-07T05:00:22.550Z,33.40
2018-03-07T05:02:50.216Z,35.03
2018-03-07T05:05:17.882Z,32.20
2018-03-07T05:07:45.505Z,35.90
2018-03-07T05:10:13.172Z,37.60
2018-03-07T05:12:40.782Z,38.80
2018-03-07T05:15:08.510Z,48.87
2018-03-07T05:17:37.040Z,79.33
2018-03-07T05:20:04.702Z,50.87
2018-03-07T05:22:32.676Z,55.63
2018-03-07T05:25:00.344Z,45.57
2018-03-07T05:27:28.729Z,52.50
2018-03-07T05:29:56.427Z,50.97
2018-03-07T05:32:24.974Z,50.87
2018-03-07T05:34:52.607Z,44.73
2018-03-07T05:37:20.292Z,35.17
2018-03-07T05:39:47.938Z,47.27
2018-03-07T05:42:15.802Z,49.93
2018-03-07T05:44:43.484Z,42.90
2018-03-07T05:47:11.591Z,49.77
2018-03-07T05:49:39.457Z,44.47
2018-03-07T05:52:07.104Z,45.50
2018-03-07T05:54:34.860Z,50.17
2018-03-07T05:57:02.557Z,43.23
2018-03-07T05:59:30.218Z,43.57
2018-03-07T06:01:57.835Z,45.20
2018-03-07T06:04:26.646Z,40.17
2018-03-07T06:06:54.524Z,41.70
2018-03-07T06:09:23.766Z,40.63
2018-03-07T06:11:51.432Z,46.37
2018-03-07T06:14:19.064Z,46.13
2018-03-07T06:16:46.660Z,44.73
2018-03-07T06:19:14.712Z,44.80
2018-03-07T06:21:42.355Z,57.57
2018-03-07T06:24:10.281Z,47.83
2018-03-07T06:26:37.925Z,58.60
2018-03-07T06:29:06.042Z,45.83
2018-03-07T06:31:33.648Z,52.23
2018-03-07T06:34:01.304Z,65.70
2018-03-07T06:36:28.941Z,64.33
2018-03-07T06:38:56.593Z,55.30
2018-03-07T06:41:24.895Z,53.90
2018-03-07T06:43:52.547Z,132.17
2018-03-07T06:46:20.212Z,120.20
2018-03-07T06:48:47.818Z,88.63
2018-03-07T06:51:16.060Z,58.77
2018-03-07T06:53:43.697Z,49.03
2018-03-07T06:56:11.639Z,45.53
2018-03-07T06:58:39.661Z,30.53
2018-03-07T07:01:07.287Z,34.37
2018-03-07T07:03:34.882Z,34.53
2018-03-07T07:06:02.515Z,35.43
2018-03-07T07:08:30.239Z,39.30
2018-03-07T07:10:57.894Z,37.10
2018-03-07T07:13:25.638Z,56.73
2018-03-07T07:15:57.249Z,43.13
2018-03-07T07:18:24.898Z,43.73
2018-03-07T07:20:52.517Z,45.63
2018-03-07T07:23:20.833Z,43.50
2018-03-07T07:25:48.534Z,43.40
2018-03-07T07:28:16.203Z,48.30
2018-03-07T07:30:43.809Z,44.50
2018-03-07T07:33:12.638Z,43.30
2018-03-07T07:35:41.118Z,46.83
2018-03-07T07:38:10.574Z,44.83
2018-03-07T07:40:38.205Z,40.87
2018-03-07T07:43:06.007Z,45.93
2018-03-07T07:45:33.646Z,42.23
2018-03-07T07:48:01.281Z,44.97
2018-03-07T07:50:28.878Z,41.87
2018-03-07T07:52:56.525Z,43.97
2018-03-07T07:55:24.864Z,42.03
2018-03-07T07:57:52.396Z,41.87
2018-03-07T08:00:20.192Z,39.90
2018-03-07T08:02:47.839Z,39.93
2018-03-07T08:05:15.675Z,39.90
2018-03-07T08:07:43.283Z,39.60
2018-03-07T08:10:10.935Z,39.17
2018-03-07T08:12:38.671Z,41.83
2018-03-07T08:15:06.409Z,41.67
2018-03-07T08:17:34.041Z,39.00
2018-03-07T08:20:01.638Z,42.83
2018-03-07T08:22:32.309Z,37.53
2018-03-07T08:24:59.922Z,40.73
2018-03-07T08:27:28.385Z,38.93
2018-03-07T08:29:55.976Z,36.70
2018-03-07T08:32:25.132Z,39.63
2018-03-07T08:34:52.889Z,36.87
2018-03-07T08:37:20.522Z,39.40
2018-03-07T08:39:48.120Z,33.63
2018-03-07T08:42:15.735Z,34.93
2018-03-07T08:44:43.334Z,30.07
2018-03-07T08:47:11.898Z,32.37
2018-03-07T08:49:39.503Z,31.43
2018-03-07T08:52:07.150Z,30.00
2018-03-07T08:54:34.781Z,30.00
2018-03-07T08:57:02.373Z,32.20
2018-03-07T08:59:29.994Z,29.87
2018-03-07T09:01:57.581Z,31.50
2018-03-07T09:04:25.170Z,30.53
2018-03-07T09:06:52.800Z,30.10
2018-03-07T09:09:24.163Z,31.03
2018-03-07T09:11:52.344Z,30.40
2018-03-07T09:14:20.114Z,30.10
2018-03-07T09:16:48.824Z,28.50
2018-03-07T09:19:17.086Z,26.50
2018-03-07T09:21:44.819Z,30.60
2018-03-07T09:24:12.504Z,26.90
2018-03-07T09:26:40.106Z,26.23
2018-03-07T09:29:10.346Z,25.83
2018-03-07T09:31:38.028Z,22.30
2018-03-07T09:34:05.778Z,24.03
2018-03-07T09:36:33.417Z,24.53
2018-03-07T09:39:01.000Z,14.60
2018-03-07T09:41:29.890Z,16.93
2018-03-07T09:43:57.836Z,14.13
2018-03-07T09:46:25.690Z,14.17
2018-03-07T09:48:53.318Z,13.13
2018-03-07T09:51:21.903Z,11.57
2018-03-07T09:53:49.514Z,11.40
2018-03-07T09:56:17.181Z,9.50
2018-03-07T09:58:44.758Z,9.10
2018-03-07T10:01:12.403Z,9.23
2018-03-07T10:03:40.020Z,12.47
2018-03-07T10:06:07.616Z,14.90
2018-03-07T10:08:35.235Z,11.10
2018-03-07T10:11:02.876Z,11.40
2018-03-07T10:13:33.135Z,13.17
2018-03-07T10:16:00.748Z,12.93
2018-03-07T10:18:29.907Z,15.13
2018-03-07T10:20:57.507Z,14.03
2018-03-07T10:23:26.865Z,15.10
2018-03-07T10:25:54.533Z,15.63
2018-03-07T10:28:24.188Z,14.53
2018-03-07T10:30:52.110Z,15.60
2018-03-07T10:33:26.149Z,17.57
2018-03-07T10:35:53.720Z,17.27
2018-03-07T10:38:21.291Z,14.53
2018-03-07T10:40:48.810Z,16.80
2018-03-07T10:43:16.365Z,18.27
2018-03-07T10:45:43.936Z,15.93
2018-03-07T10:48:11.515Z,14.23
2018-03-07T10:50:39.151Z,14.30
2018-03-07T10:53:07.126Z,13.57
2018-03-07T10:55:34.730Z,13.17
2018-03-07T10:58:02.384Z,16.50
2018-03-07T11:00:35.564Z,16.57
2018-03-07T11:03:03.203Z,17.33
2018-03-07T11:05:31.162Z,16.23
2018-03-07T11:08:00.252Z,14.67
2018-03-07T11:10:27.959Z,17.33
2018-03-07T11:12:55.703Z,16.33
2018-03-07T11:15:23.489Z,15.87
2018-03-07T11:17:51.201Z,16.80
2018-03-07T11:20:19.321Z,17.37
2018-03-07T11:22:47.423Z,15.80
2018-03-07T11:25:17.078Z,15.40
2018-03-07T11:27:45.486Z,16.00
2018-03-07T11:30:15.549Z,15.53
2018-03-07T11:32:46.998Z,13.83
2018-03-07T11:35:15.239Z,13.20
2018-03-07T11:37:43.751Z,14.00
2018-03-07T11:40:11.993Z,14.50
2018-03-07T11:42:39.632Z,15.47
2018-03-07T11:45:07.332Z,12.60
2018-03-07T11:47:34.910Z,13.43
2018-03-07T11:50:02.526Z,11.53
2018-03-07T11:52:31.188Z,11.60
2018-03-07T11:55:01.354Z,10.57
2018-03-07T11:57:30.536Z,12.13
2018-03-07T12:00:02.710Z,11.67
2018-03-07T12:02:30.492Z,12.60
2018-03-07T12:04:58.120Z,11.00
2018-03-07T12:07:25.732Z,12.60
2018-03-07T12:09:53.419Z,11.47
2018-03-07T12:12:21.012Z,12.60
2018-03-07T12:14:48.811Z,11.47
2018-03-07T12:17:16.445Z,11.87
2018-03-07T12:19:44.080Z,11.03
2018-03-07T12:22:11.714Z,12.87
2018-03-07T12:24:39.581Z,11.00
2018-03-07T12:27:08.499Z,13.37
2018-03-07T12:29:36.180Z,13.00
2018-03-07T12:32:03.823Z,10.53
2018-03-07T12:34:31.472Z,10.43
2018-03-07T12:36:59.102Z,11.50
2018-03-07T12:39:28.385Z,10.13
2018-03-07T12:41:56.355Z,10.73
2018-03-07T12:44:30.886Z,10.63
2018-03-07T12:47:00.124Z,10.97
2018-03-07T12:49:28.633Z,9.90
2018-03-07T12:51:56.439Z,10.07
2018-03-07T12:54:24.837Z,9.87
2018-03-07T12:56:52.465Z,10.53
2018-03-07T12:59:20.129Z,8.97
2018-03-07T13:01:47.692Z,9.13
2018-03-07T13:04:15.411Z,9.20
2018-03-07T13:06:43.090Z,8.87
2018-03-07T13:09:15.252Z,8.80
2018-03-07T13:11:42.902Z,9.40
2018-03-07T13:14:12.618Z,9.50
2018-03-07T13:16:40.475Z,9.40
2018-03-07T13:19:09.274Z,9.60
2018-03-07T13:21:36.932Z,9.47
2018-03-07T13:24:04.639Z,9.07
2018-03-07T13:26:33.746Z,9.33
2018-03-07T13:29:02.283Z,9.13
2018-03-07T13:31:32.949Z,10.30
2018-03-07T13:34:04.951Z,9.53
2018-03-07T13:36:33.062Z,9.40
2018-03-07T13:39:01.587Z,9.00
2018-03-07T13:41:29.309Z,10.00
2018-03-07T13:44:05.705Z,10.47
2018-03-07T13:46:39.730Z,11.07
2018-03-07T13:49:28.574Z,9.90
2018-03-07T13:51:56.338Z,10.23
2018-03-07T13:54:25.484Z,9.17
2018-03-07T13:56:54.551Z,10.20
2018-03-07T13:59:26.648Z,12.23
2018-03-07T14:01:55.428Z,10.77
2018-03-07T14:04:23.467Z,10.10
2018-03-07T14:06:53.838Z,9.30
2018-03-07T14:09:24.597Z,8.63
2018-03-07T14:14:40.985Z,8.07
2018-03-07T14:17:14.730Z,7.53
2018-03-07T14:19:42.466Z,8.23
2018-03-07T14:22:10.685Z,8.13
2018-03-07T14:24:51.057Z,7.77
2018-03-07T14:27:26.523Z,8.83
2018-03-07T14:29:54.236Z,9.40
2018-03-07T14:32:24.638Z,7.47
2018-03-07T14:34:55.557Z,8.10
2018-03-07T14:37:38.073Z,7.23
2018-03-07T14:40:05.886Z,8.23
2018-03-07T14:42:33.503Z,8.27
2018-03-07T14:45:01.249Z,8.40
2018-03-07T14:47:30.341Z,6.67
2018-03-07T14:49:59.232Z,7.80
2018-03-07T14:52:27.115Z,7.57
2018-03-07T14:54:54.846Z,7.00
2018-03-07T14:57:27.005Z,17.30
2018-03-07T14:59:54.646Z,8.90
2018-03-07T15:02:23.987Z,6.33
2018-03-07T15:04:53.401Z,5.67
2018-03-07T15:07:22.412Z,5.37
2018-03-07T15:09:59.390Z,5.07
2018-03-07T15:12:27.838Z,6.20
2018-03-07T15:14:55.488Z,4.70
2018-03-07T15:17:24.144Z,5.50
2018-03-07T15:20:08.206Z,5.67
2018-03-07T15:22:42.267Z,5.80
2018-03-07T15:25:16.511Z,4.37
2018-03-07T15:27:50.181Z,5.10
2018-03-07T15:30:17.797Z,4.57
2018-03-07T15:32:46.547Z,4.93
2018-03-07T15:35:15.813Z,5.17
2018-03-07T15:37:48.311Z,4.57
2018-03-07T15:40:19.246Z,5.10
2018-03-07T15:43:01.763Z,5.60
2018-03-07T15:45:35.041Z,6.60
2018-03-07T15:48:06.535Z,7.63
2018-03-07T15:50:35.222Z,4.80
2018-03-07T15:53:04.102Z,6.10
2018-03-07T15:55:32.665Z,6.33
2018-03-07T15:58:00.854Z,4.80
2018-03-07T16:00:28.543Z,6.90
2018-03-07T16:02:56.304Z,6.27
2018-03-07T16:05:26.168Z,4.70
2018-03-07T16:07:55.123Z,5.33
2018-03-07T16:10:23.102Z,4.87
2018-03-07T16:12:50.896Z,4.70
2018-03-07T16:15:18.797Z,5.53
2018-03-07T16:17:46.502Z,5.50
2018-03-07T16:20:16.999Z,5.03
2018-03-07T16:22:46.696Z,4.73
2018-03-07T16:25:16.194Z,5.67
2018-03-07T16:27:44.219Z,5.00
2018-03-07T16:30:13.024Z,6.07
2018-03-07T16:32:41.586Z,5.93
2018-03-07T16:35:13.072Z,5.80
2018-03-07T16:37:41.869Z,5.30
2018-03-07T16:40:09.508Z,5.07
2018-03-07T16:42:38.323Z,4.90
2018-03-07T16:45:12.435Z,4.97
2018-03-07T16:47:43.928Z,6.57
2018-03-07T16:50:19.209Z,5.80
2018-03-07T16:52:56.016Z,6.83
2018-03-07T16:58:15.671Z,5.03
2018-03-07T17:00:50.767Z,6.23
2018-03-07T17:09:18.910Z,7.03
2018-03-07T17:11:58.817Z,5.90
2018-03-07T17:14:41.411Z,5.80
2018-03-07T17:19:58.277Z,7.30
2018-03-07T17:22:29.035Z,7.00
2018-03-07T17:25:03.703Z,7.17
2018-03-07T17:27:42.431Z,8.93
2018-03-07T17:30:18.969Z,7.30
2018-03-07T17:32:52.102Z,8.00
2018-03-07T17:38:19.239Z,8.87
2018-03-07T17:40:55.398Z,7.80
2018-03-07T17:43:34.993Z,5.93
2018-03-07T17:46:11.074Z,7.20
2018-03-07T17:51:56.034Z,7.40
2018-03-07T18:00:03.349Z,14.70
2018-03-07T18:05:49.265Z,7.50
2018-03-07T18:14:13.850Z,8.07
2018-03-07T18:25:26.162Z,6.97
2018-03-07T18:46:37.878Z,33.70
2018-03-07T18:51:46.802Z,58.37
2018-03-07T18:56:58.715Z,7.80
2018-03-07T18:59:38.669Z,7.00
2018-03-07T19:02:08.480Z,11.37
2018-03-07T19:04:38.785Z,7.00
2018-03-07T19:07:09.992Z,6.97
2018-03-07T19:15:51.792Z,9.13
2018-03-07T19:21:57.095Z,7.30
2018-03-07T19:30:16.783Z,8.70
2018-03-07T19:32:59.775Z,11.47
2018-03-07T19:55:58.886Z,12.30
2018-03-07T19:58:45.613Z,12.03
2018-03-07T20:16:01.562Z,11.10
2018-03-07T20:39:31.546Z,10.33
2018-03-07T20:42:03.721Z,11.00
2018-03-07T20:44:31.363Z,9.13
2018-03-07T20:46:59.176Z,10.97
2018-03-07T20:49:26.979Z,11.00
2018-03-07T20:51:54.911Z,10.47
2018-03-07T20:54:25.168Z,12.53
2018-03-07T20:56:52.713Z,97.17
2018-03-07T20:59:20.377Z,27.10
2018-03-07T21:01:48.011Z,13.00
2018-03-07T21:04:15.632Z,17.40
2018-03-07T21:06:43.209Z,18.00
2018-03-07T21:09:11.291Z,20.40
2018-03-07T21:11:38.904Z,21.63
2018-03-07T21:14:06.578Z,23.80
2018-03-07T21:16:34.702Z,22.47
2018-03-07T21:19:02.300Z,23.03
2018-03-07T21:21:30.541Z,21.77
2018-03-07T21:23:59.013Z,19.97
2018-03-07T21:26:28.771Z,22.57
2018-03-07T21:28:56.772Z,22.63
2018-03-07T21:31:24.346Z,23.70
2018-03-07T21:33:51.978Z,21.87
2018-03-07T21:36:19.781Z,22.03
2018-03-07T21:38:47.513Z,19.07
2018-03-07T21:41:15.116Z,19.50
2018-03-07T21:43:42.896Z,20.50
2018-03-07T21:46:10.663Z,21.57
2018-03-07T21:48:38.236Z,18.93
2018-03-07T21:51:06.198Z,17.27
2018-03-07T21:53:33.924Z,17.30
2018-03-07T21:56:01.522Z,17.70
2018-03-07T21:58:29.391Z,18.00
2018-03-07T22:00:57.022Z,17.50
2018-03-07T22:03:24.615Z,16.77
2018-03-07T22:05:52.460Z,14.97
2018-03-07T22:08:20.106Z,14.40
2018-03-07T22:10:47.667Z,13.87
2018-03-07T22:13:15.306Z,14.70
2018-03-07T22:15:42.935Z,14.83
2018-03-07T22:18:10.580Z,14.73
2018-03-07T22:20:38.142Z,13.40
2018-03-07T22:23:05.865Z,13.30
2018-03-07T22:25:33.477Z,13.97
2018-03-07T22:28:01.103Z,12.77
2018-03-07T22:30:28.715Z,14.23
2018-03-07T22:32:56.474Z,13.00
2018-03-07T22:35:24.077Z,11.03
2018-03-07T22:37:51.689Z,9.57
2018-03-07T22:40:19.260Z,10.20
2018-03-07T22:42:46.806Z,11.83
2018-03-07T22:45:14.423Z,9.90
2018-03-07T22:47:42.013Z,10.70
2018-03-07T22:50:09.635Z,10.33
2018-03-07T22:52:37.351Z,10.53
2018-03-07T22:55:05.143Z,61.53
2018-03-07T22:57:32.909Z,33.80
2018-03-07T23:00:00.621Z,38.03
2018-03-07T23:02:29.022Z,25.90
2018-03-07T23:05:03.434Z,22.47
2018-03-07T23:07:31.970Z,23.57
2018-03-07T23:10:00.652Z,18.80
2018-03-07T23:12:28.520Z,22.33
2018-03-07T23:14:56.465Z,16.23
2018-03-07T23:17:26.309Z,12.90
2018-03-07T23:19:54.163Z,14.53
2018-03-07T23:22:21.833Z,9.80
2018-03-07T23:24:49.623Z,15.87
2018-03-07T23:27:20.159Z,8.60
2018-03-07T23:29:47.811Z,8.93
2018-03-07T23:32:19.721Z,9.20
2018-03-07T23:34:48.150Z,9.60
2018-03-07T23:37:16.115Z,8.70
2018-03-07T23:39:43.816Z,9.13
2018-03-07T23:42:11.664Z,9.90
2018-03-07T23:44:42.800Z,11.17
2018-03-07T23:47:11.276Z,12.80
2018-03-07T23:49:40.366Z,15.13
2018-03-07T23:52:10.750Z,12.13
2018-03-07T23:54:39.202Z,10.93
2018-03-07T23:57:07.217Z,11.63
2018-03-07T23:59:34.842Z,16.47
